Flood From: 24-02-2018 06:00 Until: 25-02-2018 06:00 warning for: Flood Level: Yellow info button

Although rather usual in this region, locally or potentially dangerous phenomena are expected. (such as local winds, summer thunderstorms, rising streams or high waves) Be aware and pay attention to the latest weather updates, especially if you carry out activities exposed to weather or close to a stream or shoreline. 


Meteo18 Weather Cam more information Meteo18 Weather Cam


Thunder radar more information blitzortung!


Rain radar more information rain snow radar


Visit our other weather sites:

Template documentation
and downloads

And another site



Weather Underground History page Text

Daily Summary for May 17, 2017 Units:  Metric    English   Both
« Previous Day
Next Day »
Daily Weekly Monthly Yearly Custom
  High: Low: Average:
Temperature: -17.8 °C -11.1 °C -6.1 °C
Dew Point: -17.8 °C -11.8 °C -9.9 °C
Humidity: Humidity % 42 % 67 %
Wind Speed: 0 km/h 0 km/h 7.4 km/h
Wind Gust: 0 km/h - -
Wind:- - SSW
Pressure: 0 hPa 34327.3 hPa -
Precipitation: 0 mm    
Historical Graphs
 
 
Tabular Data for May 17, 2017
Time Temperature Dew Point Pressure Wind Wind Speed Wind Gust Humidity Rainfall Rate (Hourly)
-17.8 °C -17.8 °C 0 hPa Calm     Humidity % 0 mm
00:02 -8 °C -10.6 °C 34693 hPa Calm   5.1 km/h 74 % 0 mm
00:12 -8.2 °C -10.7 °C 34693 hPa WNW 2.6 km/h 5.1 km/h 75 % 0 mm
00:17 -8.4 °C -10.7 °C 34693 hPa WNW 5.1 km/h 5.1 km/h 77 % 0 mm
00:22 -8.6 °C -10.7 °C 34693 hPa Calm   5.1 km/h 78 % 0 mm
00:32 -8.6 °C -10.6 °C 34693 hPa Calm   5.1 km/h 79 % 0 mm
00:37 -8.5 °C -10.7 °C 34682.8 hPa Calm   5.1 km/h 78 % 0 mm
00:42 -8.5 °C -10.7 °C 34682.8 hPa Calm   2.6 km/h 78 % 0 mm
00:52 -8.4 °C -10.7 °C 34682.8 hPa Calm   2.6 km/h 77 % 0 mm
00:57 -8.6 °C -10.7 °C 34682.8 hPa NW 2.6 km/h 2.6 km/h 78 % 0 mm
01:02 -8.7 °C -10.7 °C 34682.8 hPa NW 2.6 km/h 2.6 km/h 79 % 0 mm
01:07 -8.7 °C -10.7 °C 34682.8 hPa Calm   2.6 km/h 80 % 0 mm
01:12 -8.4 °C -10.6 °C 34682.8 hPa Calm   2.6 km/h 78 % 0 mm
01:17 -8.3 °C -10.7 °C 34682.8 hPa Calm   2.6 km/h 76 % 0 mm
01:22 -8.4 °C -10.8 °C 34682.8 hPa WNW 2.6 km/h 2.6 km/h 76 % 0 mm
01:27 -8.8 °C -10.8 °C 34682.8 hPa WNW 5.1 km/h 5.1 km/h 79 % 0 mm
01:32 -8.8 °C -10.7 °C 34682.8 hPa NW 2.6 km/h 5.1 km/h 81 % 0 mm
01:42 -8.7 °C -10.7 °C 34669.3 hPa NNE 2.6 km/h 5.1 km/h 80 % 0 mm
01:47 -8.7 °C -10.7 °C 34669.3 hPa NNE 7.7 km/h 10.3 km/h 79 % 0 mm
01:52 -8.5 °C -10.7 °C 34669.3 hPa NNE 5.1 km/h 10.3 km/h 78 % 0 mm
01:57 -8.6 °C -10.7 °C 34669.3 hPa NNE 7.7 km/h 10.3 km/h 78 % 0 mm
02:02 -8.6 °C -10.6 °C 34669.3 hPa NNE 2.6 km/h 10.3 km/h 79 % 0 mm
02:07 -8.7 °C -10.7 °C 34669.3 hPa Calm   7.7 km/h 79 % 0 mm
02:12 -8.7 °C -10.7 °C 34669.3 hPa Calm   7.7 km/h 79 % 0 mm
02:17 -8.7 °C -10.7 °C 34669.3 hPa Calm   5.1 km/h 80 % 0 mm
02:22 -8.7 °C -10.7 °C 34669.3 hPa Calm   2.6 km/h 80 % 0 mm
02:27 -8.8 °C -10.7 °C 34669.3 hPa Calm   2.6 km/h 80 % 0 mm
02:37 -9.1 °C -10.9 °C 34659.1 hPa Calm     81 % 0 mm
02:47 -9.4 °C -10.9 °C 34659.1 hPa Calm     84 % 0 mm
02:52 -9.4 °C -10.8 °C 34645.6 hPa Calm     85 % 0 mm
03:02 -9.6 °C -10.8 °C 34645.6 hPa Calm     86 % 0 mm
03:12 -9.5 °C -10.9 °C 34645.6 hPa Calm     85 % 0 mm
03:17 -9.8 °C -11.3 °C 34645.6 hPa WNW 2.6 km/h 7.7 km/h 84 % 0 mm
03:22 -9.8 °C -11 °C 34645.6 hPa WNW 2.6 km/h 7.7 km/h 87 % 0 mm
03:32 -9.8 °C -11.2 °C 34635.4 hPa Calm   5.1 km/h 85 % 0 mm
03:42 -10.1 °C -11.2 °C 34635.4 hPa Calm     88 % 0 mm
03:47 -10.1 °C -11.2 °C 34635.4 hPa Calm     88 % 0 mm
03:52 -10.1 °C -11.2 °C 34635.4 hPa Calm     88 % 0 mm
03:57 -10.2 °C -11.3 °C 34635.4 hPa Calm     88 % 0 mm
04:02 -10.2 °C -11.2 °C 34635.4 hPa Calm     89 % 0 mm
04:07 -10.2 °C -11.2 °C 34625.2 hPa Calm     89 % 0 mm
04:12 -10.2 °C -11.2 °C 34625.2 hPa Calm     89 % 0 mm
04:17 -10.1 °C -11.1 °C 34625.2 hPa NNE 5.1 km/h   89 % 0 mm
04:22 -10.1 °C -11.2 °C 34625.2 hPa NNE 5.1 km/h 7.7 km/h 87 % 0 mm
04:27 -10.1 °C -11.2 °C 34611.7 hPa Calm   7.7 km/h 87 % 0 mm
04:32 -10.5 °C -11.8 °C 34625.2 hPa WNW 2.6 km/h 7.7 km/h 86 % 0 mm
04:37 -10.6 °C -11.6 °C 34611.7 hPa WNW 2.6 km/h 5.1 km/h 89 % 0 mm
04:42 -10.7 °C -11.7 °C 34611.7 hPa Calm   5.1 km/h 89 % 0 mm
04:47 -10.7 °C -11.6 °C 34611.7 hPa Calm   5.1 km/h 90 % 0 mm
04:52 -10.7 °C -11.5 °C 34611.7 hPa Calm   5.1 km/h 91 % 0 mm
04:57 -10.8 °C -11.6 °C 34611.7 hPa Calm     91 % 0 mm
05:02 -10.8 °C -11.6 °C 34611.7 hPa Calm     91 % 0 mm
05:12 -10.7 °C -11.4 °C 34601.5 hPa Calm   2.6 km/h 91 % 0 mm
05:17 -10.7 °C -11.5 °C 34601.5 hPa Calm   2.6 km/h 91 % 0 mm
05:22 -10.8 °C -11.6 °C 34591.4 hPa Calm   2.6 km/h 91 % 0 mm
05:27 -10.7 °C -11.5 °C 34591.4 hPa Calm     91 % 0 mm
05:32 -10.7 °C -11.4 °C 34591.4 hPa Calm   2.6 km/h 91 % 0 mm
05:37 -10.7 °C -11.6 °C 34591.4 hPa Calm   2.6 km/h 90 % 0 mm
05:42 -10.8 °C -11.7 °C 34591.4 hPa Calm   2.6 km/h 90 % 0 mm
05:47 -10.9 °C -11.8 °C 34591.4 hPa Calm     90 % 0 mm
05:52 -11.1 °C -11.8 °C 34591.4 hPa WNW 5.1 km/h 5.1 km/h 91 % 0 mm
05:57 -11.1 °C -11.8 °C 34591.4 hPa WNW 2.6 km/h 5.1 km/h 92 % 0 mm
06:02 -11.1 °C -11.8 °C 34591.4 hPa North 2.6 km/h 5.1 km/h 92 % 0 mm
06:07 -11 °C -11.6 °C 34591.4 hPa Calm   5.1 km/h 93 % 0 mm
06:12 -10.9 °C -11.7 °C 34591.4 hPa Calm   5.1 km/h 92 % 0 mm
06:17 -11 °C -11.7 °C 34591.4 hPa Calm   2.6 km/h 92 % 0 mm
06:22 -10.9 °C -11.7 °C 34591.4 hPa Calm   2.6 km/h 92 % 0 mm
06:32 -10.8 °C -11.6 °C 34591.4 hPa Calm     91 % 0 mm
06:42 -10.7 °C -11.4 °C 34591.4 hPa Calm     91 % 0 mm
06:52 -10.7 °C -11.6 °C 34577.8 hPa Calm   2.6 km/h 90 % 0 mm
07:02 -10.7 °C -11.5 °C 34591.4 hPa WNW 2.6 km/h 2.6 km/h 91 % 0 mm
07:12 -10.6 °C -11.3 °C 34577.8 hPa Calm   2.6 km/h 92 % 0 mm
07:17 -10.5 °C -11.2 °C 34577.8 hPa North 5.1 km/h 5.1 km/h 92 % 0 mm
07:22 -10.2 °C -11.1 °C 34577.8 hPa Calm   5.1 km/h 90 % 0 mm
07:32 -9.7 °C -10.8 °C 34577.8 hPa Calm   5.1 km/h 87 % 0 mm
07:42 -9.3 °C -11.1 °C 34577.8 hPa Calm     82 % 0 mm
07:47 -9.4 °C -10.9 °C 34577.8 hPa Calm     84 % 0 mm
07:52 -9 °C -10.5 °C 34577.8 hPa Calm     84 % 0 mm
07:57 -8.6 °C -10.5 °C 34577.8 hPa Calm     80 % 0 mm
08:02 -8.3 °C -10.6 °C 34577.8 hPa Calm   2.6 km/h 77 % 0 mm
08:12 -7.8 °C -10.7 °C 34577.8 hPa Calm   2.6 km/h 72 % 0 mm
08:17 -7.8 °C -10.7 °C 34567.7 hPa Calm   2.6 km/h 72 % 0 mm
08:22 -7.8 °C -10.8 °C 34577.8 hPa Calm   2.6 km/h 71 % 0 mm
08:32 -7.8 °C -10.7 °C 34567.7 hPa Calm   5.1 km/h 72 % 0 mm
08:37 -7.8 °C -10.6 °C 34567.7 hPa Calm   7.7 km/h 72 % 0 mm
08:42 -7.6 °C -10.4 °C 34567.7 hPa Calm   7.7 km/h 72 % 0 mm
08:47 -7.8 °C -10.6 °C 34554.1 hPa East 2.6 km/h 7.7 km/h 73 % 0 mm
08:52 -7.9 °C -10.6 °C 34554.1 hPa ENE 2.6 km/h 7.7 km/h 74 % 0 mm
08:57 -7.7 °C -10.3 °C 34554.1 hPa East 2.6 km/h 7.7 km/h 74 % 0 mm
09:02 -7.7 °C -10.3 °C 34554.1 hPa Calm   7.7 km/h 74 % 0 mm
09:12 -7.4 °C -10.2 °C 34554.1 hPa East 2.6 km/h 7.7 km/h 73 % 0 mm
09:17 -7.6 °C -10.4 °C 34554.1 hPa ENE 7.7 km/h 7.7 km/h 72 % 0 mm
09:22 -7.7 °C -10.4 °C 34554.1 hPa East 7.7 km/h 7.7 km/h 73 % 0 mm
09:27 -7.7 °C -10.2 °C 34554.1 hPa East 2.6 km/h 10.3 km/h 75 % 0 mm
09:32 -7.4 °C -10.2 °C 34554.1 hPa East 5.1 km/h 10.3 km/h 73 % 0 mm
09:37 -7.4 °C -9.9 °C 34544 hPa Calm   10.3 km/h 75 % 0 mm
09:42 -7.2 °C -10.1 °C 34544 hPa East 2.6 km/h 10.3 km/h 72 % 0 mm
09:47 -7 °C -9.8 °C 34544 hPa Calm   7.7 km/h 73 % 0 mm
09:52 -6.9 °C -9.7 °C 34544 hPa ENE 2.6 km/h 7.7 km/h 73 % 0 mm
09:57 -6.9 °C -9.7 °C 34544 hPa Calm   10.3 km/h 73 % 0 mm
10:02 -6.7 °C -9.6 °C 34544 hPa ESE 2.6 km/h 12.9 km/h 72 % 0 mm
10:12 -6.5 °C -9.5 °C 34533.8 hPa ENE 2.6 km/h 12.9 km/h 71 % 0 mm
10:17 -6.4 °C -9.4 °C 34533.8 hPa ENE 12.9 km/h 12.9 km/h 71 % 0 mm
10:22 -6.4 °C -9.4 °C 34533.8 hPa ENE 2.6 km/h 15.6 km/h 71 % 0 mm
10:32 -6.1 °C -9.3 °C 34533.8 hPa East 2.6 km/h 15.6 km/h 70 % 0 mm
10:42 -6.2 °C -9.3 °C 34520.3 hPa SSE 5.1 km/h 10.3 km/h 71 % 0 mm
10:47 -5.9 °C -9.1 °C 34520.3 hPa ENE 5.1 km/h 12.9 km/h 70 % 0 mm
10:52 -5.8 °C -9.2 °C 34520.3 hPa SE 10.3 km/h 12.9 km/h 68 % 0 mm
10:57 -5.7 °C -9.2 °C 34520.3 hPa ENE 2.6 km/h 12.9 km/h 68 % 0 mm
11:02 -5.7 °C -9.2 °C 34510.1 hPa Calm   10.3 km/h 67 % 0 mm
11:12 -5.3 °C -9.2 °C 34510.1 hPa ENE 5.1 km/h 12.9 km/h 65 % 0 mm
11:17 -5.3 °C -9.2 °C 34510.1 hPa East 2.6 km/h 12.9 km/h 65 % 0 mm
11:22 -5.2 °C -8.8 °C 34496.6 hPa ENE 2.6 km/h 10.3 km/h 67 % 0 mm
11:27 -5.1 °C -8.7 °C 34496.6 hPa SE 5.1 km/h 10.3 km/h 67 % 0 mm
11:32 -4.8 °C -8.6 °C 34496.6 hPa ENE 5.1 km/h 10.3 km/h 66 % 0 mm
11:42 -4.8 °C -8.4 °C 34496.6 hPa East 5.1 km/h 10.3 km/h 67 % 0 mm
11:47 -4.5 °C -8.5 °C 34496.6 hPa SE 7.7 km/h 12.9 km/h 64 % 0 mm
11:52 -4.4 °C -8.9 °C 34496.6 hPa South 5.1 km/h 18.2 km/h 61 % 0 mm
12:02 -4.4 °C -8.8 °C 34486.4 hPa SE 15.6 km/h 18.2 km/h 61 % 0 mm
12:12 -4.4 °C -8.8 °C 34486.4 hPa South 12.9 km/h 18.2 km/h 61 % 0 mm
12:17 -4.2 °C -8.7 °C 34476.3 hPa ESE 7.7 km/h 20.8 km/h 61 % 0 mm
12:22 -4.2 °C -8.8 °C 34476.3 hPa WSW 2.6 km/h 20.8 km/h 60 % 0 mm
12:32 -4.1 °C -8.5 °C 34476.3 hPa SE 7.7 km/h 20.8 km/h 61 % 0 mm
12:37 -4 °C -8.6 °C 34476.3 hPa SSW 10.3 km/h 20.8 km/h 60 % 0 mm
12:42 -3.9 °C -8.8 °C 34476.3 hPa South 5.1 km/h 20.8 km/h 58 % 0 mm
12:47 -3.9 °C -8.6 °C 34476.3 hPa East 7.7 km/h 25.9 km/h 60 % 0 mm
12:52 -3.8 °C -8.6 °C 34462.7 hPa SSE 5.1 km/h 25.9 km/h 59 % 0 mm
13:02 -3.8 °C -8.7 °C 34462.7 hPa SSW 12.9 km/h 20.8 km/h 58 % 0 mm
13:07 -3.7 °C -8.7 °C 34462.7 hPa South 10.3 km/h 20.8 km/h 57 % 0 mm
13:12 -3.5 °C -8.9 °C 34462.7 hPa SSE 7.7 km/h 23.3 km/h 55 % 0 mm
13:17 -3.3 °C -8.6 °C 34462.7 hPa SSE 5.1 km/h 23.3 km/h 56 % 0 mm
13:22 -3.4 °C -8.9 °C 34462.7 hPa SW 20.8 km/h 23.3 km/h 54 % 0 mm
13:27 -3.4 °C -9.3 °C 34452.6 hPa SSE 10.3 km/h 31.1 km/h 52 % 0 mm
13:32 -3.4 °C -9.3 °C 34452.6 hPa SW 18.2 km/h 31.1 km/h 52 % 0 mm
13:37 -3.3 °C -9.2 °C 34452.6 hPa SSE 10.3 km/h 31.1 km/h 52 % 0 mm
13:42 -3.2 °C -9.4 °C 34442.4 hPa SW 12.9 km/h 28.5 km/h 50 % 0 mm
13:47 -3.2 °C -9.1 °C 34442.4 hPa SSW 7.7 km/h 28.5 km/h 52 % 0 mm
13:52 -3.1 °C -9.4 °C 34442.4 hPa WSW 15.6 km/h 28.5 km/h 50 % 0 mm
13:57 -3.1 °C -10.1 °C 34442.4 hPa SW 28.5 km/h 28.5 km/h 46 % 0 mm
14:02 -3.1 °C -9.7 °C 34442.4 hPa SSW 10.3 km/h 36.2 km/h 48 % 0 mm
14:07 -3.1 °C -9.3 °C 34442.4 hPa SW 20.8 km/h 36.2 km/h 50 % 0 mm
14:12 -2.9 °C -9.4 °C 34442.4 hPa SW 18.2 km/h 31.1 km/h 49 % 0 mm
14:17 -3 °C -9.1 °C 34442.4 hPa SSW 12.9 km/h 31.1 km/h 51 % 0 mm
14:22 -2.9 °C -9.2 °C 34442.4 hPa SW 10.3 km/h 25.9 km/h 50 % 0 mm
14:27 -2.8 °C -8.9 °C 34442.4 hPa SW 23.3 km/h 25.9 km/h 51 % 0 mm
14:32 -2.7 °C -9.7 °C 34428.8 hPa WSW 20.8 km/h 25.9 km/h 46 % 0 mm
14:37 -2.6 °C -9.8 °C 34428.8 hPa SW 7.7 km/h 25.9 km/h 45 % 0 mm
14:42 -2.7 °C -9.9 °C 34428.8 hPa SW 7.7 km/h 25.9 km/h 45 % 0 mm
14:47 -2.5 °C -9.3 °C 34428.8 hPa SW 18.2 km/h 25.9 km/h 47 % 0 mm
14:52 -2.6 °C -9.8 °C 34428.8 hPa SW 28.5 km/h 28.5 km/h 45 % 0 mm
14:57 -2.6 °C -9.8 °C 34418.7 hPa WSW 23.3 km/h 28.5 km/h 45 % 0 mm
15:02 -2.7 °C -9.5 °C 34418.7 hPa SW 18.2 km/h 33.6 km/h 47 % 0 mm
15:07 -2.7 °C -9.3 °C 34418.7 hPa SSW 15.6 km/h 33.6 km/h 48 % 0 mm
15:12 -2.7 °C -9.9 °C 34418.7 hPa SW 23.3 km/h 33.6 km/h 45 % 0 mm
15:17 -2.6 °C -9.6 °C 34418.7 hPa SSW 20.8 km/h 28.5 km/h 46 % 0 mm
15:22 -2.7 °C -9.9 °C 34405.1 hPa SW 10.3 km/h 31.1 km/h 45 % 0 mm
15:27 -2.6 °C -9.6 °C 34405.1 hPa SW 12.9 km/h 31.1 km/h 46 % 0 mm
15:32 -2.6 °C -9.4 °C 34405.1 hPa WSW 18.2 km/h 31.1 km/h 47 % 0 mm
15:37 -2.4 °C -9.7 °C 34405.1 hPa SW 10.3 km/h 25.9 km/h 45 % 0 mm
15:42 -2.5 °C -9.7 °C 34405.1 hPa SSW 15.6 km/h 31.1 km/h 45 % 0 mm
15:47 -2.6 °C -9.6 °C 34405.1 hPa WSW 7.7 km/h 31.1 km/h 46 % 0 mm
15:52 -2.4 °C -9.5 °C 34405.1 hPa SW 10.3 km/h 31.1 km/h 46 % 0 mm
15:57 -2.4 °C -9.4 °C 34395 hPa WSW 5.1 km/h 28.5 km/h 46 % 0 mm
16:02 -2.3 °C -9.8 °C 34395 hPa SW 12.9 km/h 20.8 km/h 44 % 0 mm
16:07 -2.3 °C -9.9 °C 34395 hPa SSW 7.7 km/h 23.3 km/h 43 % 0 mm
16:12 -2.3 °C -9.9 °C 34384.8 hPa West 18.2 km/h 23.3 km/h 43 % 0 mm
16:17 -2.4 °C -9.8 °C 34384.8 hPa SW 15.6 km/h 31.1 km/h 44 % 0 mm
16:22 -2.3 °C -10.1 °C 34384.8 hPa WSW 15.6 km/h 31.1 km/h 42 % 0 mm
16:27 -2.3 °C -9.8 °C 34384.8 hPa SW 7.7 km/h 28.5 km/h 44 % 0 mm
16:32 -2.3 °C -9.9 °C 34384.8 hPa SE 5.1 km/h 28.5 km/h 43 % 0 mm
16:37 -2.4 °C -9.8 °C 34384.8 hPa SW 7.7 km/h 28.5 km/h 44 % 0 mm
16:42 -2.5 °C -10.1 °C 34371.3 hPa SW 10.3 km/h 31.1 km/h 43 % 0 mm
16:47 -2.4 °C -9.7 °C 34371.3 hPa SW 15.6 km/h 31.1 km/h 45 % 0 mm
16:52 -2.4 °C -9.9 °C 34371.3 hPa SSW 7.7 km/h 31.1 km/h 44 % 0 mm
16:57 -2.4 °C -9.8 °C 34371.3 hPa SSW 15.6 km/h 28.5 km/h 44 % 0 mm
17:02 -2.3 °C -9.6 °C 34371.3 hPa South 10.3 km/h 28.5 km/h 45 % 0 mm
17:07 -2.3 °C -9.9 °C 34371.3 hPa SW 12.9 km/h 23.3 km/h 43 % 0 mm
17:12 -2.4 °C -9.4 °C 34361.1 hPa SW 18.2 km/h 23.3 km/h 46 % 0 mm
17:17 -2.4 °C -10.1 °C 34361.1 hPa SSW 18.2 km/h 33.6 km/h 43 % 0 mm
17:22 -2.4 °C -9.7 °C 34361.1 hPa SW 15.6 km/h 33.6 km/h 45 % 0 mm
17:32 -2.6 °C -9.3 °C 34361.1 hPa SSW 12.9 km/h 25.9 km/h 48 % 0 mm
17:37 -2.7 °C -9.5 °C 34361.1 hPa SW 15.6 km/h 20.8 km/h 47 % 0 mm
17:42 -2.7 °C -8.8 °C 34361.1 hPa SSW 12.9 km/h 23.3 km/h 51 % 0 mm
17:47 -2.7 °C -8.7 °C 34347.6 hPa SW 10.3 km/h 23.3 km/h 52 % 0 mm
17:52 -2.7 °C -8.8 °C 34347.6 hPa SSW 5.1 km/h 23.3 km/h 51 % 0 mm
17:57 -2.7 °C -8.8 °C 34347.6 hPa SW 10.3 km/h 20.8 km/h 51 % 0 mm
18:02 -2.5 °C -8.6 °C 34347.6 hPa WSW 12.9 km/h 23.3 km/h 51 % 0 mm
18:07 -2.5 °C -9.2 °C 34347.6 hPa South 12.9 km/h 23.3 km/h 48 % 0 mm
18:12 -2.6 °C -9.6 °C 34347.6 hPa SSW 12.9 km/h 23.3 km/h 46 % 0 mm
18:17 -2.6 °C -9.6 °C 34347.6 hPa SSE 15.6 km/h 23.3 km/h 46 % 0 mm
18:22 -2.6 °C -9.6 °C 34347.6 hPa SW 23.3 km/h 23.3 km/h 46 % 0 mm
18:32 -2.8 °C -9.1 °C 34347.6 hPa SW 7.7 km/h 23.3 km/h 50 % 0 mm
18:42 -2.9 °C -8.8 °C 34337.4 hPa SW 5.1 km/h 20.8 km/h 52 % 0 mm
18:47 -2.9 °C -9.1 °C 34337.4 hPa SSW 12.9 km/h 18.2 km/h 51 % 0 mm
18:52 -3.1 °C -8.7 °C 34337.4 hPa SW 10.3 km/h 18.2 km/h 54 % 0 mm
18:57 -3.2 °C -8.8 °C 34337.4 hPa SW 7.7 km/h 15.6 km/h 54 % 0 mm
19:02 -3.2 °C -8.9 °C 34337.4 hPa SW 7.7 km/h 15.6 km/h 53 % 0 mm
19:07 -3.2 °C -8.8 °C 34337.4 hPa SSW 5.1 km/h 15.6 km/h 54 % 0 mm
19:12 -3.2 °C -8.9 °C 34337.4 hPa SSW 7.7 km/h 15.6 km/h 53 % 0 mm
19:17 -3.2 °C -8.8 °C 34327.3 hPa SW 5.1 km/h 15.6 km/h 54 % 0 mm
19:22 -3 °C -8.6 °C 34337.4 hPa SW 7.7 km/h 12.9 km/h 54 % 0 mm
19:27 -2.9 °C -8.9 °C 34337.4 hPa WSW 5.1 km/h 12.9 km/h 52 % 0 mm
19:32 -2.9 °C -8.9 °C 34337.4 hPa SSW 12.9 km/h 12.9 km/h 52 % 0 mm
19:37 -2.9 °C -9 °C 34337.4 hPa SW 12.9 km/h 12.9 km/h 51 % 0 mm
19:42 -2.8 °C -8.8 °C 34327.3 hPa WSW 5.1 km/h 18.2 km/h 52 % 0 mm
19:47 -2.8 °C -8.9 °C 34327.3 hPa WSW 10.3 km/h 18.2 km/h 51 % 0 mm
19:52 -2.9 °C -8.7 °C 34327.3 hPa South 7.7 km/h 18.2 km/h 53 % 0 mm
19:57 -3 °C -8.6 °C 34327.3 hPa SW 10.3 km/h 18.2 km/h 54 % 0 mm
20:02 -3.1 °C -8.5 °C 34327.3 hPa SW 5.1 km/h 18.2 km/h 55 % 0 mm
20:07 -3.2 °C -8.6 °C 34327.3 hPa SW 10.3 km/h 18.2 km/h 55 % 0 mm
20:12 -3.2 °C -8.5 °C 34327.3 hPa WSW 5.1 km/h 12.9 km/h 56 % 0 mm
20:17 -3.3 °C -8.7 °C 34327.3 hPa SW 7.7 km/h 12.9 km/h 55 % 0 mm
20:22 -3.4 °C -8.9 °C 34327.3 hPa SW 7.7 km/h 12.9 km/h 54 % 0 mm
20:27 -3.4 °C -8.9 °C 34327.3 hPa WSW 7.7 km/h 12.9 km/h 54 % 0 mm
20:32 -3.4 °C -9 °C 34327.3 hPa SSW 10.3 km/h 12.9 km/h 54 % 0 mm
20:37 -3.6 °C -8.8 °C 34327.3 hPa SSW 5.1 km/h 12.9 km/h 56 % 0 mm
20:47 -3.7 °C -8.8 °C 34327.3 hPa WSW 5.1 km/h 12.9 km/h 57 % 0 mm
20:52 -3.8 °C -8.8 °C 34327.3 hPa SW 5.1 km/h 12.9 km/h 57 % 0 mm
20:57 -3.8 °C -8.7 °C 34327.3 hPa WSW 7.7 km/h 12.9 km/h 58 % 0 mm
21:02 -3.9 °C -9 °C 34327.3 hPa WSW 2.6 km/h 12.9 km/h 57 % 0 mm
21:07 -4 °C -9.1 °C 34327.3 hPa SW 2.6 km/h 12.9 km/h 57 % 0 mm
21:12 -4.1 °C -9.2 °C 34327.3 hPa WSW 5.1 km/h 15.6 km/h 57 % 0 mm
21:17 -4.2 °C -8.9 °C 34327.3 hPa WSW 5.1 km/h 15.6 km/h 59 % 0 mm
21:22 -4.3 °C -8.3 °C 34327.3 hPa West 23.3 km/h 23.3 km/h 64 % 0 mm
21:27 -4.8 °C -8.8 °C 34337.4 hPa WNW 18.2 km/h 41.4 km/h 64 % 0 mm
21:32 -5.1 °C -8.9 °C 34347.6 hPa WNW 28.5 km/h 41.4 km/h 65 % 0 mm
21:37 -5.2 °C -8.9 °C 34347.6 hPa WNW 10.3 km/h 41.4 km/h 66 % 0 mm
21:42 -5.4 °C -8.9 °C 34347.6 hPa WNW 5.1 km/h 36.2 km/h 67 % 0 mm
21:47 -5.6 °C -9 °C 34347.6 hPa NW 5.1 km/h 36.2 km/h 68 % 0 mm
21:52 -5.7 °C -8.9 °C 34347.6 hPa WNW 10.3 km/h 33.6 km/h 69 % 0 mm
21:57 -5.8 °C -8.9 °C 34347.6 hPa WNW 18.2 km/h 28.5 km/h 70 % 0 mm
22:02 -5.9 °C -8.9 °C 34347.6 hPa WNW 15.6 km/h 28.5 km/h 71 % 0 mm
22:07 -5.9 °C -8.9 °C 34361.1 hPa West 28.5 km/h 33.6 km/h 71 % 0 mm
22:12 -5.9 °C -8.9 °C 34361.1 hPa NW 7.7 km/h 38.8 km/h 72 % 0 mm
22:17 -6.1 °C -8.9 °C 34361.1 hPa WNW 7.7 km/h 38.8 km/h 72 % 0 mm
22:22 -6.2 °C -8.9 °C 34371.3 hPa West 20.8 km/h 38.8 km/h 73 % 0 mm
22:27 -6.2 °C -8.8 °C 34371.3 hPa West 15.6 km/h 36.2 km/h 75 % 0 mm
22:32 -6.3 °C -8.9 °C 34371.3 hPa WNW 25.9 km/h 46.7 km/h 75 % 0 mm
22:37 -6.4 °C -9 °C 34371.3 hPa West 15.6 km/h 46.7 km/h 75 % 0 mm
22:42 -6.6 °C -9 °C 34371.3 hPa WNW 12.9 km/h 46.7 km/h 76 % 0 mm
22:47 -6.7 °C -9.1 °C 34384.8 hPa WNW 18.2 km/h 49.2 km/h 76 % 0 mm
22:52 -6.7 °C -9.2 °C 34384.8 hPa WNW 15.6 km/h 49.2 km/h 76 % 0 mm
22:57 -6.8 °C -9.3 °C 34384.8 hPa West 12.9 km/h 49.2 km/h 76 % 0 mm
23:02 -6.9 °C -9.3 °C 34384.8 hPa WNW 10.3 km/h 49.2 km/h 76 % 0 mm
23:07 -6.9 °C -9.3 °C 34384.8 hPa West 18.2 km/h 36.2 km/h 76 % 0 mm
23:12 -7 °C -9.4 °C 34384.8 hPa West 15.6 km/h 38.8 km/h 76 % 0 mm
23:17 -7.1 °C -9.3 °C 34384.8 hPa West 28.5 km/h 38.8 km/h 77 % 0 mm
23:22 -7.1 °C -9.4 °C 34384.8 hPa WNW 7.7 km/h 36.2 km/h 77 % 0 mm
23:27 -7.2 °C -9.3 °C 34384.8 hPa WNW 20.8 km/h 44.1 km/h 78 % 0 mm
23:32 -7.2 °C -9.4 °C 34384.8 hPa West 12.9 km/h 44.1 km/h 78 % 0 mm
23:37 -7.3 °C -9.5 °C 34384.8 hPa WSW 10.3 km/h 44.1 km/h 78 % 0 mm
23:42 -7.4 °C -9.6 °C 34384.8 hPa WNW 5.1 km/h 25.9 km/h 78 % 0 mm
23:52 -7.4 °C -9.5 °C 34384.8 hPa West 10.3 km/h 28.5 km/h 79 % 0 mm
23:57 -7.6 °C -9.5 °C 34395 hPa West 10.3 km/h 28.5 km/h 80 % 0 mm
Meteo18
Compliments of Weather Underground - 4 mb

Script developed by  Jim McMurry - jmcmurry@mwt.net Adapted for the template by  Wim van der Kuil - Leuven-Template.eu

You find our weather info also at:

European Weather Network

Weather Underground

Equipment we use:

Weather-station
Davis Vue

Weather-program
Meteobridge

Weather-server
Raspberry PI 2 B+

Provider
1 and 1

Davis Vue

Meteobridge

Raspberry PI 2 B+

1 and 1